sensor_id;sensor_type;location;lat;lon;timestamp;pressure;altitude;pressure_sealevel;temperature;humidity
61769;BME280;47669;48.712;9.016;2023-02-19T00:01:40;97050.94;;;8.79;nan
61769;BME280;47669;48.712;9.016;2023-02-19T00:04:11;97052.75;;;8.78;nan
61769;BME280;47669;48.712;9.016;2023-02-19T00:06:37;97056.00;;;8.80;nan
61769;BME280;47669;48.712;9.016;2023-02-19T00:09:03;97040.44;;;8.79;nan
61769;BME280;47669;48.712;9.016;2023-02-19T00:11:30;97054.41;;;8.86;nan
61769;BME280;47669;48.712;9.016;2023-02-19T00:13:57;97045.88;;;8.77;nan
61769;BME280;47669;48.712;9.016;2023-02-19T00:16:25;97051.13;;;8.77;nan
61769;BME280;47669;48.712;9.016;2023-02-19T00:18:52;97046.09;;;8.76;nan
61769;BME280;47669;48.712;9.016;2023-02-19T00:21:18;97049.50;;;8.76;nan
61769;BME280;47669;48.712;9.016;2023-02-19T00:24:04;97046.66;;;8.71;nan
61769;BME280;47669;48.712;9.016;2023-02-19T00:26:30;97041.22;;;8.79;nan
61769;BME280;47669;48.712;9.016;2023-02-19T00:28:56;97031.94;;;8.77;nan
61769;BME280;47669;48.712;9.016;2023-02-19T00:31:24;97041.03;;;8.74;nan
61769;BME280;47669;48.712;9.016;2023-02-19T00:33:52;97024.22;;;8.68;nan
61769;BME280;47669;48.712;9.016;2023-02-19T00:36:18;97032.34;;;8.74;nan
61769;BME280;47669;48.712;9.016;2023-02-19T00:38:44;97040.16;;;8.67;nan
61769;BME280;47669;48.712;9.016;2023-02-19T00:41:11;97052.91;;;8.70;nan
61769;BME280;47669;48.712;9.016;2023-02-19T00:46:10;97052.06;;;8.63;nan
61769;BME280;47669;48.712;9.016;2023-02-19T00:48:36;97055.69;;;8.62;nan
61769;BME280;47669;48.712;9.016;2023-02-19T00:51:01;97058.66;;;8.52;nan
61769;BME280;47669;48.712;9.016;2023-02-19T00:53:26;97059.91;;;8.56;nan
61769;BME280;47669;48.712;9.016;2023-02-19T00:55:52;97061.53;;;8.57;nan
61769;BME280;47669;48.712;9.016;2023-02-19T00:58:17;97054.25;;;8.59;nan
61769;BME280;47669;48.712;9.016;2023-02-19T01:00:42;97050.41;;;8.55;nan
61769;BME280;47669;48.712;9.016;2023-02-19T01:03:07;97044.34;;;8.55;nan
61769;BME280;47669;48.712;9.016;2023-02-19T01:05:33;97040.53;;;8.57;nan
61769;BME280;47669;48.712;9.016;2023-02-19T01:07:58;97036.84;;;8.52;nan
61769;BME280;47669;48.712;9.016;2023-02-19T01:10:23;97036.47;;;8.55;nan
61769;BME280;47669;48.712;9.016;2023-02-19T01:12:48;97046.56;;;8.51;nan
61769;BME280;47669;48.712;9.016;2023-02-19T01:15:14;97025.38;;;8.53;nan
61769;BME280;47669;48.712;9.016;2023-02-19T01:17:39;97023.91;;;8.50;nan
61769;BME280;47669;48.712;9.016;2023-02-19T01:20:04;97024.94;;;8.49;nan
61769;BME280;47669;48.712;9.016;2023-02-19T01:22:30;97022.31;;;8.49;nan
61769;BME280;47669;48.712;9.016;2023-02-19T01:24:55;97029.38;;;8.48;nan
61769;BME280;47669;48.712;9.016;2023-02-19T01:27:20;97024.13;;;8.48;nan
61769;BME280;47669;48.712;9.016;2023-02-19T01:29:46;97012.19;;;8.46;nan
61769;BME280;47669;48.712;9.016;2023-02-19T01:32:11;97008.38;;;8.48;nan
61769;BME280;47669;48.712;9.016;2023-02-19T01:34:36;97009.81;;;8.51;nan
61769;BME280;47669;48.712;9.016;2023-02-19T01:37:01;97012.81;;;8.48;nan
61769;BME280;47669;48.712;9.016;2023-02-19T01:39:27;97011.81;;;8.49;nan
61769;BME280;47669;48.712;9.016;2023-02-19T01:41:52;97009.78;;;8.44;nan
61769;BME280;47669;48.712;9.016;2023-02-19T01:46:44;97010.78;;;8.43;nan
61769;BME280;47669;48.712;9.016;2023-02-19T01:49:16;97002.63;;;8.38;nan
61769;BME280;47669;48.712;9.016;2023-02-19T01:51:46;97026.66;;;8.35;nan
61769;BME280;47669;48.712;9.016;2023-02-19T01:54:14;97035.50;;;8.34;nan
61769;BME280;47669;48.712;9.016;2023-02-19T01:56:43;97027.25;;;8.37;nan
61769;BME280;47669;48.712;9.016;2023-02-19T01:59:10;97022.38;;;8.34;nan
61769;BME280;47669;48.712;9.016;2023-02-19T02:01:37;97010.47;;;8.32;nan
61769;BME280;47669;48.712;9.016;2023-02-19T02:04:04;97006.22;;;8.30;nan
61769;BME280;47669;48.712;9.016;2023-02-19T02:06:35;97016.31;;;8.27;nan
61769;BME280;47669;48.712;9.016;2023-02-19T02:09:03;97015.09;;;8.29;nan
61769;BME280;47669;48.712;9.016;2023-02-19T02:11:49;97022.13;;;8.22;nan
61769;BME280;47669;48.712;9.016;2023-02-19T02:14:16;97023.53;;;8.25;nan
61769;BME280;47669;48.712;9.016;2023-02-19T02:16:56;97023.13;;;8.21;nan
61769;BME280;47669;48.712;9.016;2023-02-19T02:22:18;97012.03;;;8.19;nan
61769;BME280;47669;48.712;9.016;2023-02-19T02:25:08;97006.97;;;8.18;nan
61769;BME280;47669;48.712;9.016;2023-02-19T02:30:25;96994.81;;;8.10;nan
61769;BME280;47669;48.712;9.016;2023-02-19T02:36:02;96999.63;;;8.06;nan
61769;BME280;47669;48.712;9.016;2023-02-19T02:38:31;97002.66;;;8.10;nan
61769;BME280;47669;48.712;9.016;2023-02-19T02:40:58;96994.75;;;8.03;nan
61769;BME280;47669;48.712;9.016;2023-02-19T02:43:24;96987.50;;;8.05;nan
61769;BME280;47669;48.712;9.016;2023-02-19T02:45:49;96983.00;;;7.99;nan
61769;BME280;47669;48.712;9.016;2023-02-19T02:50:53;96987.91;;;8.02;nan
61769;BME280;47669;48.712;9.016;2023-02-19T02:53:30;96981.59;;;7.97;nan
61769;BME280;47669;48.712;9.016;2023-02-19T02:56:17;96974.53;;;7.97;nan
61769;BME280;47669;48.712;9.016;2023-02-19T02:58:43;96968.66;;;7.95;nan
61769;BME280;47669;48.712;9.016;2023-02-19T03:01:12;96976.09;;;7.92;nan
61769;BME280;47669;48.712;9.016;2023-02-19T03:04:02;96969.88;;;7.93;nan
61769;BME280;47669;48.712;9.016;2023-02-19T03:06:32;96970.31;;;7.96;nan
61769;BME280;47669;48.712;9.016;2023-02-19T03:09:08;96977.34;;;7.96;nan
61769;BME280;47669;48.712;9.016;2023-02-19T03:11:39;96978.16;;;7.96;nan
61769;BME280;47669;48.712;9.016;2023-02-19T03:14:33;96977.56;;;7.94;nan
61769;BME280;47669;48.712;9.016;2023-02-19T03:17:26;96976.09;;;7.92;nan
61769;BME280;47669;48.712;9.016;2023-02-19T03:20:14;96973.19;;;7.80;nan
61769;BME280;47669;48.712;9.016;2023-02-19T03:22:41;96984.84;;;7.70;nan
61769;BME280;47669;48.712;9.016;2023-02-19T03:25:11;96981.56;;;7.68;nan
61769;BME280;47669;48.712;9.016;2023-02-19T03:27:59;96984.94;;;7.62;nan
61769;BME280;47669;48.712;9.016;2023-02-19T03:30:30;96981.16;;;7.65;nan
61769;BME280;47669;48.712;9.016;2023-02-19T03:33:00;96970.16;;;7.55;nan
61769;BME280;47669;48.712;9.016;2023-02-19T03:35:34;96971.31;;;7.67;nan
61769;BME280;47669;48.712;9.016;2023-02-19T03:38:02;96980.16;;;7.66;nan
61769;BME280;47669;48.712;9.016;2023-02-19T03:40:30;96976.66;;;7.59;nan
61769;BME280;47669;48.712;9.016;2023-02-19T03:43:18;96977.03;;;7.56;nan
61769;BME280;47669;48.712;9.016;2023-02-19T03:46:05;96981.41;;;7.48;nan
61769;BME280;47669;48.712;9.016;2023-02-19T03:48:35;96977.94;;;7.41;nan
61769;BME280;47669;48.712;9.016;2023-02-19T03:53:57;96982.84;;;7.29;nan
61769;BME280;47669;48.712;9.016;2023-02-19T03:57:22;96985.28;;;7.31;nan
61769;BME280;47669;48.712;9.016;2023-02-19T03:59:38;96990.34;;;7.33;nan
61769;BME280;47669;48.712;9.016;2023-02-19T04:02:09;96990.34;;;7.33;nan
61769;BME280;47669;48.712;9.016;2023-02-19T04:04:43;96989.16;;;7.35;nan
61769;BME280;47669;48.712;9.016;2023-02-19T04:07:09;96988.69;;;7.31;nan
61769;BME280;47669;48.712;9.016;2023-02-19T04:09:39;96997.44;;;7.39;nan
61769;BME280;47669;48.712;9.016;2023-02-19T04:12:06;96987.97;;;7.38;nan
61769;BME280;47669;48.712;9.016;2023-02-19T04:14:37;96998.63;;;7.36;nan
61769;BME280;47669;48.712;9.016;2023-02-19T04:17:07;96999.69;;;7.42;nan
61769;BME280;47669;48.712;9.016;2023-02-19T04:19:37;97008.53;;;7.41;nan
61769;BME280;47669;48.712;9.016;2023-02-19T04:22:05;97003.31;;;7.41;nan
61769;BME280;47669;48.712;9.016;2023-02-19T04:24:36;97000.69;;;7.41;nan
61769;BME280;47669;48.712;9.016;2023-02-19T04:27:03;97003.13;;;7.42;nan
61769;BME280;47669;48.712;9.016;2023-02-19T04:29:29;97005.94;;;7.41;nan
61769;BME280;47669;48.712;9.016;2023-02-19T04:31:54;97015.88;;;7.45;nan
61769;BME280;47669;48.712;9.016;2023-02-19T04:34:20;97012.81;;;7.42;nan
61769;BME280;47669;48.712;9.016;2023-02-19T04:36:45;97020.28;;;7.45;nan
61769;BME280;47669;48.712;9.016;2023-02-19T04:39:10;97021.94;;;7.31;nan
61769;BME280;47669;48.712;9.016;2023-02-19T04:41:36;97027.47;;;7.36;nan
61769;BME280;47669;48.712;9.016;2023-02-19T04:44:01;97022.34;;;7.28;nan
61769;BME280;47669;48.712;9.016;2023-02-19T04:46:26;97019.72;;;7.28;nan
61769;BME280;47669;48.712;9.016;2023-02-19T04:48:52;97022.97;;;7.30;nan
61769;BME280;47669;48.712;9.016;2023-02-19T04:51:17;97032.25;;;7.33;nan
61769;BME280;47669;48.712;9.016;2023-02-19T04:53:42;97031.63;;;7.30;nan
61769;BME280;47669;48.712;9.016;2023-02-19T04:56:13;97037.50;;;7.33;nan
61769;BME280;47669;48.712;9.016;2023-02-19T04:58:40;97044.38;;;7.34;nan
61769;BME280;47669;48.712;9.016;2023-02-19T05:01:05;97033.94;;;7.40;nan
61769;BME280;47669;48.712;9.016;2023-02-19T05:03:31;97033.44;;;7.30;nan
61769;BME280;47669;48.712;9.016;2023-02-19T05:06:01;97038.47;;;7.31;nan
61769;BME280;47669;48.712;9.016;2023-02-19T05:08:27;97036.13;;;7.37;nan
61769;BME280;47669;48.712;9.016;2023-02-19T05:10:56;97028.75;;;7.25;nan
61769;BME280;47669;48.712;9.016;2023-02-19T05:13:22;97044.09;;;7.28;nan
61769;BME280;47669;48.712;9.016;2023-02-19T05:15:59;97031.00;;;7.28;nan
61769;BME280;47669;48.712;9.016;2023-02-19T05:18:25;97031.19;;;7.27;nan
61769;BME280;47669;48.712;9.016;2023-02-19T05:20:51;97032.59;;;7.29;nan
61769;BME280;47669;48.712;9.016;2023-02-19T05:23:17;97040.72;;;7.35;nan
61769;BME280;47669;48.712;9.016;2023-02-19T05:25:43;97049.50;;;7.27;nan
61769;BME280;47669;48.712;9.016;2023-02-19T05:28:08;97044.16;;;7.35;nan
61769;BME280;47669;48.712;9.016;2023-02-19T05:30:47;97042.28;;;7.29;nan
61769;BME280;47669;48.712;9.016;2023-02-19T05:33:14;97041.09;;;7.31;nan
61769;BME280;47669;48.712;9.016;2023-02-19T05:35:42;97046.91;;;7.27;nan
61769;BME280;47669;48.712;9.016;2023-02-19T05:38:08;97047.34;;;7.30;nan
61769;BME280;47669;48.712;9.016;2023-02-19T05:40:34;97047.41;;;7.37;nan
61769;BME280;47669;48.712;9.016;2023-02-19T05:42:59;97048.69;;;7.41;nan
61769;BME280;47669;48.712;9.016;2023-02-19T05:45:25;97038.56;;;7.38;nan
61769;BME280;47669;48.712;9.016;2023-02-19T05:47:50;97042.44;;;7.42;nan
61769;BME280;47669;48.712;9.016;2023-02-19T05:50:16;97051.91;;;7.43;nan
61769;BME280;47669;48.712;9.016;2023-02-19T05:52:41;97044.78;;;7.37;nan
61769;BME280;47669;48.712;9.016;2023-02-19T05:55:08;97045.22;;;7.41;nan
61769;BME280;47669;48.712;9.016;2023-02-19T05:57:41;97053.72;;;7.43;nan
61769;BME280;47669;48.712;9.016;2023-02-19T06:00:09;97050.47;;;7.41;nan
61769;BME280;47669;48.712;9.016;2023-02-19T06:02:35;97060.13;;;7.40;nan
61769;BME280;47669;48.712;9.016;2023-02-19T06:05:01;97060.75;;;7.42;nan
61769;BME280;47669;48.712;9.016;2023-02-19T06:07:26;97066.75;;;7.36;nan
61769;BME280;47669;48.712;9.016;2023-02-19T06:09:51;97077.06;;;7.38;nan
61769;BME280;47669;48.712;9.016;2023-02-19T06:12:17;97082.47;;;7.36;nan
61769;BME280;47669;48.712;9.016;2023-02-19T06:14:42;97090.22;;;7.29;nan
61769;BME280;47669;48.712;9.016;2023-02-19T06:17:07;97083.56;;;7.27;nan
61769;BME280;47669;48.712;9.016;2023-02-19T06:19:32;97072.34;;;7.33;nan
61769;BME280;47669;48.712;9.016;2023-02-19T06:21:58;97084.47;;;7.34;nan
61769;BME280;47669;48.712;9.016;2023-02-19T06:24:23;97069.81;;;7.40;nan
61769;BME280;47669;48.712;9.016;2023-02-19T06:26:48;97086.50;;;7.39;nan
61769;BME280;47669;48.712;9.016;2023-02-19T06:29:15;97091.56;;;7.40;nan
61769;BME280;47669;48.712;9.016;2023-02-19T06:31:40;97078.22;;;7.35;nan
61769;BME280;47669;48.712;9.016;2023-02-19T06:34:06;97077.22;;;7.36;nan
61769;BME280;47669;48.712;9.016;2023-02-19T06:36:31;97088.06;;;7.33;nan
61769;BME280;47669;48.712;9.016;2023-02-19T06:39:00;97090.06;;;7.31;nan
61769;BME280;47669;48.712;9.016;2023-02-19T06:41:25;97088.81;;;7.27;nan
61769;BME280;47669;48.712;9.016;2023-02-19T06:43:50;97094.50;;;7.30;nan
61769;BME280;47669;48.712;9.016;2023-02-19T06:46:16;97095.75;;;7.35;nan
61769;BME280;47669;48.712;9.016;2023-02-19T06:48:43;97106.84;;;7.37;nan
61769;BME280;47669;48.712;9.016;2023-02-19T06:51:11;97108.97;;;7.26;nan
61769;BME280;47669;48.712;9.016;2023-02-19T06:53:37;97109.94;;;7.25;nan
61769;BME280;47669;48.712;9.016;2023-02-19T06:56:05;97122.22;;;7.25;nan
61769;BME280;47669;48.712;9.016;2023-02-19T06:58:31;97132.06;;;7.23;nan
61769;BME280;47669;48.712;9.016;2023-02-19T07:00:57;97141.94;;;7.21;nan
61769;BME280;47669;48.712;9.016;2023-02-19T07:03:22;97144.53;;;7.06;nan
61769;BME280;47669;48.712;9.016;2023-02-19T07:05:48;97143.56;;;7.07;nan
61769;BME280;47669;48.712;9.016;2023-02-19T07:08:13;97154.03;;;7.07;nan
61769;BME280;47669;48.712;9.016;2023-02-19T07:10:41;97156.72;;;7.14;nan
61769;BME280;47669;48.712;9.016;2023-02-19T07:13:06;97160.44;;;7.19;nan
61769;BME280;47669;48.712;9.016;2023-02-19T07:15:31;97160.59;;;7.18;nan
61769;BME280;47669;48.712;9.016;2023-02-19T07:17:58;97176.78;;;7.21;nan
61769;BME280;47669;48.712;9.016;2023-02-19T07:20:23;97179.31;;;7.15;nan
61769;BME280;47669;48.712;9.016;2023-02-19T07:22:49;97176.88;;;7.13;nan
61769;BME280;47669;48.712;9.016;2023-02-19T07:25:14;97178.06;;;7.10;nan
61769;BME280;47669;48.712;9.016;2023-02-19T07:27:39;97174.44;;;7.11;nan
61769;BME280;47669;48.712;9.016;2023-02-19T07:30:05;97176.53;;;7.16;nan
61769;BME280;47669;48.712;9.016;2023-02-19T07:32:30;97173.28;;;7.14;nan
61769;BME280;47669;48.712;9.016;2023-02-19T07:34:56;97177.50;;;7.15;nan
61769;BME280;47669;48.712;9.016;2023-02-19T07:37:21;97176.59;;;7.23;nan
61769;BME280;47669;48.712;9.016;2023-02-19T07:39:46;97176.44;;;7.24;nan
61769;BME280;47669;48.712;9.016;2023-02-19T07:42:11;97184.75;;;7.28;nan
61769;BME280;47669;48.712;9.016;2023-02-19T07:44:37;97196.28;;;7.19;nan
61769;BME280;47669;48.712;9.016;2023-02-19T07:47:02;97204.72;;;7.14;nan
61769;BME280;47669;48.712;9.016;2023-02-19T07:49:27;97206.03;;;7.10;nan
61769;BME280;47669;48.712;9.016;2023-02-19T07:51:53;97200.28;;;7.15;nan
61769;BME280;47669;48.712;9.016;2023-02-19T07:54:18;97194.47;;;7.19;nan
61769;BME280;47669;48.712;9.016;2023-02-19T07:56:43;97191.13;;;7.25;nan
61769;BME280;47669;48.712;9.016;2023-02-19T07:59:08;97202.44;;;7.26;nan
61769;BME280;47669;48.712;9.016;2023-02-19T08:01:34;97201.59;;;7.25;nan
61769;BME280;47669;48.712;9.016;2023-02-19T08:04:18;97198.72;;;7.35;nan
61769;BME280;47669;48.712;9.016;2023-02-19T08:06:44;97192.66;;;7.35;nan
61769;BME280;47669;48.712;9.016;2023-02-19T08:09:09;97182.28;;;7.41;nan
61769;BME280;47669;48.712;9.016;2023-02-19T08:11:34;97193.56;;;7.42;nan
61769;BME280;47669;48.712;9.016;2023-02-19T08:14:18;97191.41;;;7.45;nan
61769;BME280;47669;48.712;9.016;2023-02-19T08:16:48;97202.88;;;7.44;nan
61769;BME280;47669;48.712;9.016;2023-02-19T08:19:14;97210.84;;;7.36;nan
61769;BME280;47669;48.712;9.016;2023-02-19T08:21:39;97221.03;;;7.31;nan
61769;BME280;47669;48.712;9.016;2023-02-19T08:24:05;97226.09;;;7.03;nan
61769;BME280;47669;48.712;9.016;2023-02-19T08:26:31;97231.16;;;7.04;nan
61769;BME280;47669;48.712;9.016;2023-02-19T08:28:56;97246.84;;;6.89;nan
61769;BME280;47669;48.712;9.016;2023-02-19T08:31:23;97255.78;;;6.95;nan
61769;BME280;47669;48.712;9.016;2023-02-19T08:33:49;97264.19;;;7.05;nan
61769;BME280;47669;48.712;9.016;2023-02-19T08:36:14;97250.66;;;7.17;nan
61769;BME280;47669;48.712;9.016;2023-02-19T08:38:40;97254.25;;;7.16;nan
61769;BME280;47669;48.712;9.016;2023-02-19T08:41:06;97251.22;;;7.42;nan
61769;BME280;47669;48.712;9.016;2023-02-19T08:43:32;97243.53;;;7.40;nan
61769;BME280;47669;48.712;9.016;2023-02-19T08:45:57;97239.94;;;7.41;nan
61769;BME280;47669;48.712;9.016;2023-02-19T08:48:23;97239.94;;;7.41;nan
61769;BME280;47669;48.712;9.016;2023-02-19T08:51:02;97236.38;;;7.64;nan
61769;BME280;47669;48.712;9.016;2023-02-19T08:53:32;97229.53;;;7.63;nan
61769;BME280;47669;48.712;9.016;2023-02-19T08:55:57;97243.03;;;7.66;nan
61769;BME280;47669;48.712;9.016;2023-02-19T08:58:22;97236.19;;;7.65;nan
61769;BME280;47669;48.712;9.016;2023-02-19T09:00:51;97236.19;;;7.65;nan
61769;BME280;47669;48.712;9.016;2023-02-19T09:03:16;97242.69;;;7.69;nan
61769;BME280;47669;48.712;9.016;2023-02-19T09:05:41;97245.59;;;7.75;nan
61769;BME280;47669;48.712;9.016;2023-02-19T09:08:07;97254.78;;;7.85;nan
61769;BME280;47669;48.712;9.016;2023-02-19T09:10:33;97248.44;;;7.80;nan
61769;BME280;47669;48.712;9.016;2023-02-19T09:12:58;97256.94;;;7.97;nan
61769;BME280;47669;48.712;9.016;2023-02-19T09:15:24;97253.53;;;7.81;nan
61769;BME280;47669;48.712;9.016;2023-02-19T09:17:51;97260.22;;;8.20;nan
61769;BME280;47669;48.712;9.016;2023-02-19T09:20:16;97264.78;;;7.97;nan
61769;BME280;47669;48.712;9.016;2023-02-19T09:22:42;97269.06;;;7.83;nan
61769;BME280;47669;48.712;9.016;2023-02-19T09:25:07;97269.81;;;7.77;nan
61769;BME280;47669;48.712;9.016;2023-02-19T09:27:32;97285.72;;;7.75;nan
61769;BME280;47669;48.712;9.016;2023-02-19T09:29:58;97284.28;;;7.73;nan
61769;BME280;47669;48.712;9.016;2023-02-19T09:32:23;97291.94;;;7.74;nan
61769;BME280;47669;48.712;9.016;2023-02-19T09:34:48;97282.59;;;8.01;nan
61769;BME280;47669;48.712;9.016;2023-02-19T09:37:14;97285.59;;;7.98;nan
61769;BME280;47669;48.712;9.016;2023-02-19T09:39:39;97278.47;;;7.92;nan
61769;BME280;47669;48.712;9.016;2023-02-19T09:42:20;97283.44;;;7.87;nan
61769;BME280;47669;48.712;9.016;2023-02-19T09:44:50;97279.28;;;7.93;nan
61769;BME280;47669;48.712;9.016;2023-02-19T09:47:18;97290.50;;;7.86;nan
61769;BME280;47669;48.712;9.016;2023-02-19T09:49:47;97300.88;;;7.95;nan
61769;BME280;47669;48.712;9.016;2023-02-19T09:52:23;97299.16;;;7.87;nan
61769;BME280;47669;48.712;9.016;2023-02-19T09:54:51;97301.06;;;7.78;nan
61769;BME280;47669;48.712;9.016;2023-02-19T09:57:22;97305.50;;;7.78;nan
61769;BME280;47669;48.712;9.016;2023-02-19T09:59:50;97309.84;;;7.85;nan
61769;BME280;47669;48.712;9.016;2023-02-19T10:02:18;97319.16;;;7.88;nan
61769;BME280;47669;48.712;9.016;2023-02-19T10:04:46;97319.34;;;7.72;nan
61769;BME280;47669;48.712;9.016;2023-02-19T10:07:13;97313.34;;;7.78;nan
61769;BME280;47669;48.712;9.016;2023-02-19T10:09:40;97314.91;;;7.72;nan
61769;BME280;47669;48.712;9.016;2023-02-19T10:12:17;97322.84;;;7.64;nan
61769;BME280;47669;48.712;9.016;2023-02-19T10:14:50;97324.69;;;7.63;nan
61769;BME280;47669;48.712;9.016;2023-02-19T10:17:24;97317.91;;;7.69;nan
61769;BME280;47669;48.712;9.016;2023-02-19T10:19:51;97306.84;;;7.29;nan
61769;BME280;47669;48.712;9.016;2023-02-19T10:22:17;97316.19;;;7.61;nan
61769;BME280;47669;48.712;9.016;2023-02-19T10:24:44;97322.97;;;7.70;nan
61769;BME280;47669;48.712;9.016;2023-02-19T10:27:13;97325.16;;;8.03;nan
61769;BME280;47669;48.712;9.016;2023-02-19T10:29:39;97320.53;;;7.69;nan
61769;BME280;47669;48.712;9.016;2023-02-19T10:34:42;97320.41;;;7.77;nan
61769;BME280;47669;48.712;9.016;2023-02-19T10:37:12;97328.47;;;7.90;nan
61769;BME280;47669;48.712;9.016;2023-02-19T10:39:44;97340.19;;;8.09;nan
61769;BME280;47669;48.712;9.016;2023-02-19T10:42:20;97330.00;;;8.00;nan
61769;BME280;47669;48.712;9.016;2023-02-19T10:44:53;97334.97;;;8.09;nan
61769;BME280;47669;48.712;9.016;2023-02-19T10:47:24;97341.59;;;8.42;nan
61769;BME280;47669;48.712;9.016;2023-02-19T10:49:51;97348.13;;;8.16;nan
61769;BME280;47669;48.712;9.016;2023-02-19T10:54:54;97347.63;;;8.06;nan
61769;BME280;47669;48.712;9.016;2023-02-19T10:57:24;97350.38;;;8.34;nan
61769;BME280;47669;48.712;9.016;2023-02-19T10:59:59;97343.75;;;8.38;nan
61769;BME280;47669;48.712;9.016;2023-02-19T11:02:27;97344.59;;;8.24;nan
61769;BME280;47669;48.712;9.016;2023-02-19T11:05:05;97332.44;;;8.53;nan
61769;BME280;47669;48.712;9.016;2023-02-19T11:07:30;97336.50;;;8.55;nan
61769;BME280;47669;48.712;9.016;2023-02-19T11:09:57;97335.13;;;8.59;nan
61769;BME280;47669;48.712;9.016;2023-02-19T11:12:28;97328.97;;;8.52;nan
61769;BME280;47669;48.712;9.016;2023-02-19T11:14:55;97317.50;;;8.53;nan
61769;BME280;47669;48.712;9.016;2023-02-19T11:17:25;97322.00;;;8.59;nan
61769;BME280;47669;48.712;9.016;2023-02-19T11:19:56;97327.38;;;8.73;nan
61769;BME280;47669;48.712;9.016;2023-02-19T11:22:37;97329.66;;;8.76;nan
61769;BME280;47669;48.712;9.016;2023-02-19T11:27:35;97336.69;;;8.54;nan
61769;BME280;47669;48.712;9.016;2023-02-19T11:32:51;97330.19;;;8.49;nan
61769;BME280;47669;48.712;9.016;2023-02-19T11:35:20;97331.47;;;8.24;nan
61769;BME280;47669;48.712;9.016;2023-02-19T11:37:57;97324.34;;;8.18;nan
61769;BME280;47669;48.712;9.016;2023-02-19T11:40:34;97334.53;;;8.42;nan
61769;BME280;47669;48.712;9.016;2023-02-19T11:43:32;97322.13;;;8.36;nan
61769;BME280;47669;48.712;9.016;2023-02-19T11:46:13;97325.19;;;8.55;nan
61769;BME280;47669;48.712;9.016;2023-02-19T11:51:57;97335.72;;;8.25;nan
61769;BME280;47669;48.712;9.016;2023-02-19T12:08:28;97351.94;;;8.65;nan
61769;BME280;47669;48.712;9.016;2023-02-19T12:13:49;97358.91;;;8.58;nan
61769;BME280;47669;48.712;9.016;2023-02-19T12:16:26;97342.50;;;8.49;nan
61769;BME280;47669;48.712;9.016;2023-02-19T12:43:39;97310.00;;;9.21;nan
61769;BME280;47669;48.712;9.016;2023-02-19T12:46:19;97310.44;;;9.25;nan
61769;BME280;47669;48.712;9.016;2023-02-19T12:48:54;97309.06;;;9.29;nan
61769;BME280;47669;48.712;9.016;2023-02-19T12:51:26;97317.38;;;8.83;nan
61769;BME280;47669;48.712;9.016;2023-02-19T12:54:19;97325.00;;;9.27;nan
61769;BME280;47669;48.712;9.016;2023-02-19T12:56:51;97318.06;;;9.20;nan
61769;BME280;47669;48.712;9.016;2023-02-19T13:02:15;97310.72;;;9.37;nan
61769;BME280;47669;48.712;9.016;2023-02-19T13:04:55;97305.72;;;9.42;nan
61769;BME280;47669;48.712;9.016;2023-02-19T13:07:27;97314.00;;;9.45;nan
61769;BME280;47669;48.712;9.016;2023-02-19T13:09:59;97299.06;;;9.81;nan
61769;BME280;47669;48.712;9.016;2023-02-19T13:12:30;97303.97;;;9.91;nan
61769;BME280;47669;48.712;9.016;2023-02-19T13:15:13;97317.16;;;9.62;nan
61769;BME280;47669;48.712;9.016;2023-02-19T13:17:44;97312.19;;;10.29;nan
61769;BME280;47669;48.712;9.016;2023-02-19T13:22:57;97311.44;;;9.52;nan
61769;BME280;47669;48.712;9.016;2023-02-19T13:26:13;97306.03;;;9.04;nan
61769;BME280;47669;48.712;9.016;2023-02-19T13:31:46;97306.84;;;9.04;nan
61769;BME280;47669;48.712;9.016;2023-02-19T13:36:47;97312.69;;;8.78;nan
61769;BME280;47669;48.712;9.016;2023-02-19T13:39:14;97314.38;;;8.64;nan
61769;BME280;47669;48.712;9.016;2023-02-19T13:41:48;97318.19;;;8.62;nan
61769;BME280;47669;48.712;9.016;2023-02-19T13:44:19;97313.19;;;8.67;nan
61769;BME280;47669;48.712;9.016;2023-02-19T13:46:47;97313.88;;;8.54;nan
61769;BME280;47669;48.712;9.016;2023-02-19T13:51:47;97305.63;;;8.57;nan
61769;BME280;47669;48.712;9.016;2023-02-19T13:54:31;97310.19;;;8.48;nan
61769;BME280;47669;48.712;9.016;2023-02-19T13:57:24;97302.69;;;8.45;nan
61769;BME280;47669;48.712;9.016;2023-02-19T13:59:55;97294.53;;;8.62;nan
61769;BME280;47669;48.712;9.016;2023-02-19T14:04:49;97294.38;;;9.13;nan
61769;BME280;47669;48.712;9.016;2023-02-19T14:14:38;97292.72;;;9.05;nan
61769;BME280;47669;48.712;9.016;2023-02-19T14:33:28;97320.75;;;8.77;nan
61769;BME280;47669;48.712;9.016;2023-02-19T14:38:46;97314.13;;;8.81;nan
61769;BME280;47669;48.712;9.016;2023-02-19T14:41:13;97318.75;;;8.57;nan
61769;BME280;47669;48.712;9.016;2023-02-19T14:43:40;97321.50;;;8.71;nan
61769;BME280;47669;48.712;9.016;2023-02-19T14:46:30;97321.88;;;8.67;nan
61769;BME280;47669;48.712;9.016;2023-02-19T14:49:00;97318.31;;;8.54;nan
61769;BME280;47669;48.712;9.016;2023-02-19T14:51:37;97331.47;;;8.39;nan
61769;BME280;47669;48.712;9.016;2023-02-19T14:54:15;97328.47;;;8.42;nan
61769;BME280;47669;48.712;9.016;2023-02-19T14:56:44;97333.72;;;8.42;nan
61769;BME280;47669;48.712;9.016;2023-02-19T15:01:37;97324.19;;;8.77;nan
61769;BME280;47669;48.712;9.016;2023-02-19T15:04:03;97329.53;;;8.47;nan
61769;BME280;47669;48.712;9.016;2023-02-19T15:06:29;97332.81;;;8.49;nan
61769;BME280;47669;48.712;9.016;2023-02-19T15:09:02;97331.09;;;8.42;nan
61769;BME280;47669;48.712;9.016;2023-02-19T15:11:30;97342.88;;;8.31;nan
61769;BME280;47669;48.712;9.016;2023-02-19T15:14:01;97346.38;;;8.38;nan
61769;BME280;47669;48.712;9.016;2023-02-19T15:16:28;97347.28;;;8.30;nan
61769;BME280;47669;48.712;9.016;2023-02-19T15:18:56;97355.72;;;8.11;nan
61769;BME280;47669;48.712;9.016;2023-02-19T15:21:25;97364.06;;;8.15;nan
61769;BME280;47669;48.712;9.016;2023-02-19T15:23:56;97362.25;;;8.15;nan
61769;BME280;47669;48.712;9.016;2023-02-19T15:26:30;97368.56;;;8.21;nan
61769;BME280;47669;48.712;9.016;2023-02-19T15:29:19;97367.75;;;8.20;nan
61769;BME280;47669;48.712;9.016;2023-02-19T15:32:12;97367.84;;;8.27;nan
61769;BME280;47669;48.712;9.016;2023-02-19T15:34:39;97378.63;;;8.17;nan
61769;BME280;47669;48.712;9.016;2023-02-19T15:37:08;97384.50;;;8.19;nan
61769;BME280;47669;48.712;9.016;2023-02-19T15:39:39;97381.97;;;8.11;nan
61769;BME280;47669;48.712;9.016;2023-02-19T15:42:06;97392.03;;;8.07;nan
61769;BME280;47669;48.712;9.016;2023-02-19T15:44:49;97392.72;;;8.01;nan